Time;durP1;ratioP1;P1;durP2;ratioP2;P2;SDS_P1;SDS_P2;PMS_P1;PMS_P2;Temp;Humidity;BMP_temperature;BMP_pressure;BME280_temperature;BME280_humidity;BME280_pressure;Samples;Min_cycle;Max_cycle;Signal;HPM_P1;HPM_P2
2021/01/03 00:01:21;;;;;;;11.03;6.70;;;4.20;99.90;;;;;;5072219;28;20209;-64
2021/01/03 00:03:48;;;;;;;9.13;6.77;;;4.20;99.90;;;;;;5071702;28;20700;-63
2021/01/03 00:06:14;;;;;;;8.77;6.30;;;4.20;99.90;;;;;;5074565;28;20414;-63
2021/01/03 00:08:41;;;;;;;8.20;6.30;;;4.20;99.90;;;;;;5076118;28;20231;-62
2021/01/03 00:11:07;;;;;;;7.53;6.10;;;4.20;99.90;;;;;;5076585;28;20228;-63
2021/01/03 00:13:34;;;;;;;8.27;6.70;;;4.00;99.90;;;;;;5075638;28;20201;-67
2021/01/03 00:16:01;;;;;;;7.57;5.87;;;4.10;99.90;;;;;;5076733;28;20208;-64
2021/01/03 00:18:27;;;;;;;8.97;6.27;;;4.30;99.90;;;;;;5076666;28;20229;-65
2021/01/03 00:20:54;;;;;;;9.80;6.70;;;4.30;99.90;;;;;;5075416;28;20235;-64
2021/01/03 00:23:20;;;;;;;7.50;6.13;;;4.30;99.90;;;;;;5076852;28;20699;-65
2021/01/03 00:25:48;;;;;;;8.00;6.30;;;4.30;99.90;;;;;;5076547;28;20673;-65
2021/01/03 00:28:14;;;;;;;7.60;6.00;;;4.40;99.90;;;;;;5074056;28;20420;-64
2021/01/03 00:30:42;;;;;;;8.17;6.30;;;4.40;99.90;;;;;;5073501;28;20286;-62
2021/01/03 00:33:10;;;;;;;7.63;5.63;;;4.40;99.90;;;;;;5075607;28;20225;-62
2021/01/03 00:35:36;;;;;;;7.13;6.03;;;4.40;99.90;;;;;;5074962;28;20235;-62
2021/01/03 00:38:06;;;;;;;7.50;6.20;;;4.30;99.90;;;;;;5075319;28;20607;-62
2021/01/03 00:40:34;;;;;;;9.70;6.63;;;4.20;99.90;;;;;;5074585;28;20217;-62
2021/01/03 00:43:01;;;;;;;8.30;6.00;;;4.20;99.90;;;;;;5074431;28;20565;-62
2021/01/03 00:45:28;;;;;;;8.37;6.03;;;4.30;99.90;;;;;;5073003;28;20295;-62
2021/01/03 00:47:54;;;;;;;7.50;5.80;;;4.20;99.90;;;;;;5072531;28;20229;-62
2021/01/03 00:50:22;;;;;;;8.70;6.13;;;4.20;99.90;;;;;;5074568;28;20657;-62
2021/01/03 00:52:48;;;;;;;7.97;6.10;;;4.10;99.90;;;;;;5074473;28;20232;-63
2021/01/03 00:55:15;;;;;;;8.43;6.37;;;4.00;99.90;;;;;;5073637;28;20256;-62
2021/01/03 00:57:41;;;;;;;7.70;6.10;;;4.10;99.90;;;;;;5071549;28;20217;-62
2021/01/03 01:00:13;;;;;;;8.17;6.17;;;4.00;99.90;;;;;;5071492;28;20262;-62
2021/01/03 01:02:39;;;;;;;7.83;5.93;;;4.00;99.90;;;;;;5071589;28;20233;-62
2021/01/03 01:05:06;;;;;;;8.90;6.73;;;4.00;99.90;;;;;;5071876;28;20283;-63
2021/01/03 01:07:34;;;;;;;9.50;6.57;;;4.10;99.90;;;;;;5072420;28;20231;-63
2021/01/03 01:10:00;;;;;;;8.10;6.53;;;4.20;99.90;;;;;;5072940;28;20223;-63
2021/01/03 01:12:27;;;;;;;10.27;6.97;;;4.10;99.90;;;;;;5072411;28;20209;-63
2021/01/03 01:14:53;;;;;;;7.00;5.97;;;4.10;99.90;;;;;;5071973;28;20193;-63
2021/01/03 01:17:19;;;;;;;7.20;6.00;;;4.10;99.90;;;;;;5072127;28;20209;-63
2021/01/03 01:19:45;;;;;;;8.00;6.10;;;4.00;99.90;;;;;;5071949;28;20208;-63
2021/01/03 01:22:12;;;;;;;8.50;6.87;;;3.90;99.90;;;;;;5071945;28;20227;-62
2021/01/03 01:24:39;;;;;;;7.97;6.47;;;4.10;99.90;;;;;;5071871;28;20224;-63
2021/01/03 01:27:05;;;;;;;8.80;7.00;;;4.20;99.90;;;;;;5072053;28;20612;-62
2021/01/03 01:29:32;;;;;;;8.77;7.00;;;4.30;99.90;;;;;;5071886;28;20230;-67
2021/01/03 01:31:58;;;;;;;7.53;6.53;;;4.20;99.90;;;;;;5072384;28;20205;-63
2021/01/03 01:34:24;;;;;;;8.00;6.63;;;4.10;99.90;;;;;;5071891;28;20205;-64
2021/01/03 01:36:51;;;;;;;8.93;6.67;;;4.10;99.90;;;;;;5072197;28;20283;-64
2021/01/03 01:39:17;;;;;;;9.03;6.80;;;4.00;99.90;;;;;;5071058;28;20728;-63
2021/01/03 01:41:44;;;;;;;8.97;6.77;;;4.00;99.90;;;;;;5071596;28;20212;-63
2021/01/03 01:44:10;;;;;;;10.23;7.23;;;4.10;99.90;;;;;;5070956;28;20209;-63
2021/01/03 01:46:40;;;;;;;9.03;6.97;;;4.10;99.90;;;;;;5071811;28;20258;-63
2021/01/03 01:49:10;;;;;;;8.83;6.50;;;4.20;99.90;;;;;;5071129;28;20274;-63
2021/01/03 01:51:40;;;;;;;9.60;7.23;;;4.10;99.90;;;;;;5071758;28;20209;-63
2021/01/03 01:54:12;;;;;;;8.40;6.97;;;4.00;99.90;;;;;;5071257;28;20212;-63
2021/01/03 01:56:44;;;;;;;9.70;7.10;;;3.90;99.90;;;;;;5074149;28;20204;-64
2021/01/03 01:59:18;;;;;;;9.13;7.20;;;3.80;99.90;;;;;;5075256;28;20225;-65
2021/01/03 02:01:51;;;;;;;9.57;7.70;;;3.90;99.90;;;;;;5075512;28;20624;-64
2021/01/03 02:04:24;;;;;;;10.67;7.57;;;4.10;99.90;;;;;;5074665;28;20299;-63
2021/01/03 02:06:58;;;;;;;9.90;7.67;;;4.20;99.90;;;;;;5074642;28;20270;-63
2021/01/03 02:09:32;;;;;;;10.33;8.00;;;4.30;99.90;;;;;;5074556;28;20232;-64
2021/01/03 02:12:09;;;;;;;9.83;7.77;;;4.30;99.90;;;;;;5074885;28;20283;-64
2021/01/03 02:14:36;;;;;;;9.77;7.87;;;4.20;99.90;;;;;;5074302;28;20250;-64
2021/01/03 02:17:05;;;;;;;9.13;7.60;;;4.30;99.90;;;;;;5074902;28;20205;-64
2021/01/03 02:19:33;;;;;;;10.53;8.47;;;4.30;99.90;;;;;;5073819;28;20253;-63
2021/01/03 02:22:06;;;;;;;9.97;7.90;;;4.40;99.90;;;;;;5074502;28;20231;-63
2021/01/03 02:24:41;;;;;;;10.03;7.90;;;4.40;99.90;;;;;;5073677;28;20216;-63
2021/01/03 02:27:13;;;;;;;10.37;8.10;;;4.50;99.90;;;;;;5074420;28;20585;-63
2021/01/03 02:29:41;;;;;;;9.90;8.10;;;4.60;99.90;;;;;;5073899;28;20201;-63
2021/01/03 02:32:08;;;;;;;10.87;8.00;;;4.60;99.90;;;;;;5074529;28;20239;-63
2021/01/03 02:34:37;;;;;;;10.03;7.63;;;4.60;99.90;;;;;;5073673;28;20724;-63
2021/01/03 02:37:08;;;;;;;12.57;8.13;;;4.60;99.90;;;;;;5074374;28;20610;-63
2021/01/03 02:39:42;;;;;;;11.37;8.70;;;4.60;99.90;;;;;;5074012;28;20225;-64
2021/01/03 02:42:16;;;;;;;9.03;7.67;;;4.70;99.90;;;;;;5074071;28;20224;-64
2021/01/03 02:44:42;;;;;;;9.10;7.23;;;4.70;99.90;;;;;;5073917;28;20209;-64
2021/01/03 02:47:09;;;;;;;9.83;7.97;;;4.70;99.90;;;;;;5074837;28;20220;-63
2021/01/03 02:49:36;;;;;;;11.37;8.53;;;4.70;99.90;;;;;;5074463;28;20336;-63
2021/01/03 02:52:05;;;;;;;10.17;7.93;;;4.70;99.90;;;;;;5074317;28;20209;-64
2021/01/03 02:54:31;;;;;;;10.23;8.20;;;4.80;99.90;;;;;;5073487;28;20205;-63
2021/01/03 02:56:59;;;;;;;9.57;7.60;;;4.80;99.90;;;;;;5073582;28;20215;-64
2021/01/03 02:59:26;;;;;;;11.43;8.50;;;4.80;99.90;;;;;;5073421;28;20381;-64
2021/01/03 03:01:53;;;;;;;9.83;8.37;;;4.80;99.90;;;;;;5074147;28;20205;-64
2021/01/03 03:04:19;;;;;;;9.73;7.73;;;4.80;99.90;;;;;;5073457;28;20205;-64
2021/01/03 03:06:45;;;;;;;11.33;8.20;;;4.70;99.90;;;;;;5073297;28;20208;-63
2021/01/03 03:09:11;;;;;;;10.03;8.07;;;4.80;99.90;;;;;;5073095;28;20224;-62
2021/01/03 03:11:37;;;;;;;11.50;8.40;;;4.80;99.90;;;;;;5073819;28;20205;-62
2021/01/03 03:14:04;;;;;;;11.10;8.33;;;4.70;99.90;;;;;;5073865;28;20205;-63
2021/01/03 03:16:31;;;;;;;9.47;7.77;;;4.60;99.90;;;;;;5073658;28;20231;-63
2021/01/03 03:18:57;;;;;;;10.53;7.73;;;4.50;99.90;;;;;;5073179;28;20233;-63
2021/01/03 03:21:23;;;;;;;11.67;8.70;;;4.40;99.90;;;;;;5073456;28;20201;-63
2021/01/03 03:23:49;;;;;;;9.27;7.90;;;4.40;99.90;;;;;;5072802;28;20228;-63
2021/01/03 03:26:16;;;;;;;11.17;7.87;;;4.30;99.90;;;;;;5073308;28;20262;-62
2021/01/03 03:28:42;;;;;;;11.07;8.53;;;4.30;99.90;;;;;;5072993;28;20225;-63
2021/01/03 03:31:08;;;;;;;9.77;8.37;;;4.30;99.90;;;;;;5072822;28;20236;-62
2021/01/03 03:33:35;;;;;;;10.27;7.87;;;4.30;99.90;;;;;;5073219;28;20217;-62
2021/01/03 03:36:01;;;;;;;11.23;8.87;;;4.30;99.90;;;;;;5073389;28;20209;-62
2021/01/03 03:38:28;;;;;;;10.80;8.73;;;4.30;99.90;;;;;;5073022;28;20229;-62
2021/01/03 03:40:54;;;;;;;12.10;9.47;;;4.40;99.90;;;;;;5073336;28;20230;-63
2021/01/03 03:43:20;;;;;;;10.13;8.70;;;4.40;99.90;;;;;;5073381;28;20225;-63
2021/01/03 03:45:46;;;;;;;11.73;9.50;;;4.40;99.90;;;;;;5072917;28;20205;-63
2021/01/03 03:48:12;;;;;;;12.60;9.23;;;4.50;99.90;;;;;;5073300;28;20693;-62
2021/01/03 03:50:39;;;;;;;10.70;8.73;;;4.60;99.90;;;;;;5073384;28;20204;-63
2021/01/03 03:53:06;;;;;;;12.77;9.87;;;4.60;99.90;;;;;;5072813;28;20205;-63
2021/01/03 03:55:32;;;;;;;11.50;8.60;;;4.70;99.90;;;;;;5072245;28;20209;-63
2021/01/03 03:57:58;;;;;;;11.10;9.37;;;4.70;99.90;;;;;;5072613;28;20229;-62
2021/01/03 04:00:25;;;;;;;10.67;9.00;;;4.70;99.90;;;;;;5072747;28;20204;-63
2021/01/03 04:02:52;;;;;;;11.80;9.73;;;4.80;99.90;;;;;;5072336;28;20641;-62
2021/01/03 04:05:22;;;;;;;11.93;9.87;;;4.80;99.90;;;;;;5072235;28;20262;-62
2021/01/03 04:07:49;;;;;;;11.97;10.03;;;4.80;99.90;;;;;;5072230;28;20225;-62
2021/01/03 04:10:17;;;;;;;12.77;9.10;;;4.80;99.90;;;;;;5072330;28;20813;-63
2021/01/03 04:12:43;;;;;;;12.20;9.60;;;4.80;99.90;;;;;;5072315;28;20204;-62
2021/01/03 04:15:12;;;;;;;12.53;9.97;;;4.70;99.90;;;;;;5071689;28;20201;-62
2021/01/03 04:17:39;;;;;;;12.67;10.07;;;4.70;99.90;;;;;;5071436;28;20709;-62
2021/01/03 04:20:07;;;;;;;12.30;9.90;;;4.70;99.90;;;;;;5071775;28;20676;-62
2021/01/03 04:22:33;;;;;;;12.43;10.23;;;4.80;99.90;;;;;;5071679;28;20228;-62
2021/01/03 04:25:00;;;;;;;13.63;10.33;;;4.80;99.90;;;;;;5072036;28;20201;-63
2021/01/03 04:27:27;;;;;;;11.43;9.63;;;4.80;99.90;;;;;;5071932;28;20266;-63
2021/01/03 04:29:53;;;;;;;11.50;9.13;;;4.70;99.90;;;;;;5071568;28;20223;-63
2021/01/03 04:32:20;;;;;;;12.20;10.03;;;4.70;99.90;;;;;;5071706;28;20212;-63
2021/01/03 04:34:46;;;;;;;11.77;10.00;;;4.70;99.90;;;;;;5071766;28;20205;-63
2021/01/03 04:37:16;;;;;;;11.93;9.63;;;4.60;99.90;;;;;;5071815;28;20209;-63
2021/01/03 04:39:43;;;;;;;11.03;9.27;;;4.50;99.90;;;;;;5071731;28;20204;-64
2021/01/03 04:42:15;;;;;;;11.10;9.27;;;4.40;99.90;;;;;;5071601;28;20250;-63
2021/01/03 04:44:44;;;;;;;12.40;9.97;;;4.40;99.90;;;;;;5071294;28;20209;-63
2021/01/03 04:47:22;;;;;;;11.67;9.87;;;4.40;99.90;;;;;;5071566;28;20207;-64
2021/01/03 04:49:56;;;;;;;11.50;9.80;;;4.50;99.90;;;;;;5071079;28;20216;-63
2021/01/03 04:52:59;;;;;;;11.47;9.83;;;4.50;99.90;;;;;;5071692;28;20201;-63
2021/01/03 04:55:27;;;;;;;11.87;10.33;;;4.60;99.90;;;;;;5070748;28;20205;-63
2021/01/03 04:58:10;;;;;;;13.27;10.47;;;4.60;99.90;;;;;;5070471;28;20224;-63
2021/01/03 05:00:44;;;;;;;14.13;10.87;;;4.50;99.90;;;;;;5071080;28;20209;-63
2021/01/03 05:03:45;;;;;;;13.20;10.93;;;4.40;99.90;;;;;;5071177;28;20221;-64
2021/01/03 05:06:15;;;;;;;13.37;11.00;;;4.30;99.90;;;;;;5071201;28;20208;-63
2021/01/03 05:08:47;;;;;;;12.27;10.97;;;4.20;99.90;;;;;;5070907;28;20309;-63
2021/01/03 05:11:17;;;;;;;12.17;10.13;;;4.20;99.90;;;;;;5071279;28;20213;-63
2021/01/03 05:14:00;;;;;;;11.77;10.47;;;4.20;99.90;;;;;;5070649;28;20261;-63
2021/01/03 05:16:26;;;;;;;11.83;10.10;;;4.00;99.90;;;;;;5071065;28;20201;-63
2021/01/03 05:18:52;;;;;;;13.10;10.73;;;3.90;99.90;;;;;;5070650;28;20239;-63
2021/01/03 05:21:19;;;;;;;12.37;10.37;;;4.00;99.90;;;;;;5071789;28;20238;-63
2021/01/03 05:24:00;;;;;;;13.97;10.40;;;4.00;99.90;;;;;;5071175;28;20609;-63
2021/01/03 05:26:30;;;;;;;13.00;10.07;;;4.10;99.90;;;;;;5071272;28;20205;-63
2021/01/03 05:28:58;;;;;;;12.97;10.53;;;4.10;99.90;;;;;;5071234;28;20233;-63
2021/01/03 05:31:25;;;;;;;12.43;10.80;;;4.20;99.90;;;;;;5076871;28;20233;-63
2021/01/03 05:33:54;;;;;;;12.40;10.13;;;4.30;99.90;;;;;;5079488;28;20201;-62
2021/01/03 05:36:28;;;;;;;12.23;9.70;;;4.40;99.90;;;;;;5079268;28;20672;-63
2021/01/03 05:38:55;;;;;;;12.10;10.03;;;4.40;99.90;;;;;;5079215;28;20245;-63
2021/01/03 05:41:31;;;;;;;11.73;10.00;;;4.50;99.90;;;;;;5079755;28;20207;-63
2021/01/03 05:44:11;;;;;;;11.43;9.90;;;4.50;99.90;;;;;;5077553;28;20208;-63
2021/01/03 05:46:42;;;;;;;11.17;9.50;;;4.50;99.90;;;;;;5079630;28;20211;-62
2021/01/03 05:49:11;;;;;;;11.33;9.50;;;4.50;99.90;;;;;;5079251;28;20228;-62
2021/01/03 05:51:42;;;;;;;11.83;9.57;;;4.50;99.90;;;;;;5077712;28;20254;-63
2021/01/03 05:54:13;;;;;;;12.57;9.87;;;4.50;99.90;;;;;;5077304;28;20228;-63
2021/01/03 05:56:40;;;;;;;12.07;10.00;;;4.50;99.90;;;;;;5077665;28;20629;-62
2021/01/03 05:59:13;;;;;;;11.53;9.50;;;4.50;99.90;;;;;;5077467;28;20290;-63
2021/01/03 06:01:39;;;;;;;11.73;9.77;;;4.50;99.90;;;;;;5077558;28;20211;-62
2021/01/03 06:04:08;;;;;;;12.10;9.97;;;4.50;99.90;;;;;;5077162;28;20290;-63
2021/01/03 06:06:47;;;;;;;14.00;9.87;;;4.60;99.90;;;;;;5077301;28;20583;-64
2021/01/03 06:09:14;;;;;;;12.10;10.27;;;4.60;99.90;;;;;;5078250;28;20366;-64
2021/01/03 06:11:40;;;;;;;11.23;9.43;;;4.60;99.90;;;;;;5078328;28;20231;-63
2021/01/03 06:14:10;;;;;;;13.17;10.83;;;4.60;99.90;;;;;;5077274;28;20688;-63
2021/01/03 06:16:46;;;;;;;12.53;9.63;;;4.60;99.90;;;;;;5077572;28;20216;-63
2021/01/03 06:19:26;;;;;;;12.00;9.67;;;4.60;99.90;;;;;;5077069;28;20246;-63
2021/01/03 06:21:54;;;;;;;12.17;10.13;;;4.60;99.90;;;;;;5077522;28;20205;-63
2021/01/03 06:24:25;;;;;;;11.60;9.50;;;4.60;99.90;;;;;;5077129;28;20236;-63
2021/01/03 06:26:54;;;;;;;12.47;10.37;;;4.60;99.90;;;;;;5077420;28;20573;-63
2021/01/03 06:29:27;;;;;;;12.53;10.07;;;4.60;99.90;;;;;;5077248;28;20265;-63
2021/01/03 06:32:11;;;;;;;12.13;9.77;;;4.60;99.90;;;;;;5077657;28;20688;-63
2021/01/03 06:34:43;;;;;;;12.63;10.23;;;4.50;99.90;;;;;;5077083;28;20200;-64
2021/01/03 06:37:20;;;;;;;14.47;10.53;;;4.60;99.90;;;;;;5077573;28;20554;-63
2021/01/03 06:39:53;;;;;;;12.53;10.00;;;4.60;99.90;;;;;;5077357;28;20212;-63
2021/01/03 06:43:09;;;;;;;11.30;9.47;;;4.50;99.90;;;;;;5075749;28;20224;-64
2021/01/03 06:46:13;;;;;;;12.33;9.67;;;4.50;99.90;;;;;;5073954;28;20205;-63
2021/01/03 06:49:10;;;;;;;17.93;12.77;;;4.50;99.90;;;;;;5073835;28;20255;-64
2021/01/03 06:51:58;;;;;;;13.63;10.87;;;4.60;99.90;;;;;;5074020;28;20270;-63
2021/01/03 06:54:51;;;;;;;15.43;11.83;;;4.60;99.90;;;;;;5060791;28;20216;-63
2021/01/03 06:58:01;;;;;;;13.20;10.50;;;4.60;99.90;;;;;;5074271;28;20205;-63
2021/01/03 07:00:37;;;;;;;12.77;10.70;;;4.50;99.90;;;;;;5074020;28;20216;-63
2021/01/03 07:03:08;;;;;;;11.50;9.80;;;4.60;99.90;;;;;;5073808;28;20240;-63
2021/01/03 07:05:35;;;;;;;14.07;11.20;;;4.60;99.90;;;;;;5073663;28;20208;-63
2021/01/03 07:08:03;;;;;;;17.57;11.33;;;4.60;99.90;;;;;;5073512;28;20282;-62
2021/01/03 07:10:39;;;;;;;15.03;11.17;;;4.70;99.90;;;;;;5073777;28;20487;-62
2021/01/03 07:13:35;;;;;;;21.67;14.17;;;4.70;99.90;;;;;;5073795;28;20212;-62
2021/01/03 07:16:03;;;;;;;17.37;11.57;;;4.70;99.90;;;;;;5073479;28;20204;-63
2021/01/03 07:18:42;;;;;;;13.63;10.87;;;4.70;99.90;;;;;;5072935;28;20228;-63
2021/01/03 07:21:32;;;;;;;18.63;13.43;;;4.70;99.90;;;;;;5073274;28;20266;-63
2021/01/03 07:24:33;;;;;;;12.20;9.97;;;4.70;99.90;;;;;;5073228;28;20701;-63
2021/01/03 07:27:33;;;;;;;14.13;11.43;;;4.70;99.90;;;;;;5073330;28;20262;-63
2021/01/03 07:30:32;;;;;;;15.63;12.23;;;4.60;99.90;;;;;;5073093;28;20268;-63
2021/01/03 07:33:03;;;;;;;12.07;10.50;;;4.60;99.90;;;;;;5071694;28;20205;-62
2021/01/03 07:35:35;;;;;;;13.07;10.90;;;4.70;99.90;;;;;;5072935;28;20569;-64
2021/01/03 07:38:24;;;;;;;19.00;13.77;;;4.70;99.90;;;;;;5072870;28;20224;-63
2021/01/03 07:40:58;;;;;;;24.20;15.00;;;4.70;99.90;;;;;;5073368;28;20266;-63
2021/01/03 07:43:25;;;;;;;17.97;13.87;;;4.80;99.90;;;;;;5073323;28;20221;-63
2021/01/03 07:45:51;;;;;;;20.87;14.60;;;4.80;99.90;;;;;;5073465;28;20205;-63
2021/01/03 07:48:39;;;;;;;15.53;12.37;;;4.80;99.90;;;;;;5072723;28;20225;-63
2021/01/03 07:51:10;;;;;;;14.07;11.20;;;4.90;99.90;;;;;;5073118;28;20227;-63
2021/01/03 07:53:39;;;;;;;17.80;12.90;;;4.90;99.90;;;;;;5072613;28;20212;-63
2021/01/03 07:56:26;;;;;;;18.53;13.50;;;4.90;99.90;;;;;;5073461;28;20208;-64
2021/01/03 07:58:53;;;;;;;17.47;12.80;;;4.90;99.90;;;;;;5072565;28;20232;-63
2021/01/03 08:01:22;;;;;;;14.80;11.97;;;5.10;99.90;;;;;;5072323;28;20208;-61
2021/01/03 08:03:48;;;;;;;15.63;11.87;;;4.90;99.90;;;;;;5072534;28;20225;-60
2021/01/03 08:06:15;;;;;;;15.67;11.83;;;4.80;99.90;;;;;;5072764;28;20646;-59
2021/01/03 08:08:42;;;;;;;13.33;11.53;;;4.90;99.90;;;;;;5072627;28;20225;-58
2021/01/03 08:11:20;;;;;;;14.87;12.17;;;4.90;99.90;;;;;;5072392;28;20212;-59
2021/01/03 08:13:49;;;;;;;20.27;14.53;;;4.80;99.90;;;;;;5071784;28;20209;-59
2021/01/03 08:16:21;;;;;;;21.00;15.17;;;4.90;99.90;;;;;;5072604;28;20201;-59
2021/01/03 08:18:55;;;;;;;17.43;13.07;;;5.00;99.90;;;;;;5072386;28;20405;-59
2021/01/03 08:21:23;;;;;;;17.77;13.83;;;5.10;99.90;;;;;;5072246;28;20208;-59
2021/01/03 08:23:49;;;;;;;15.03;12.50;;;5.30;99.90;;;;;;5071618;28;20716;-59
2021/01/03 08:26:20;;;;;;;17.70;13.97;;;5.50;99.90;;;;;;5071647;28;20208;-57
2021/01/03 08:28:56;;;;;;;14.50;11.93;;;5.50;99.90;;;;;;5071686;28;20224;-59
2021/01/03 08:31:22;;;;;;;15.80;12.43;;;5.60;99.90;;;;;;5071922;28;20231;-59
2021/01/03 08:33:51;;;;;;;15.37;12.33;;;5.70;99.90;;;;;;5071367;28;20209;-59
2021/01/03 08:36:22;;;;;;;17.77;13.43;;;5.80;99.90;;;;;;5071563;28;20200;-58
2021/01/03 08:38:49;;;;;;;15.73;12.77;;;5.90;99.90;;;;;;5071412;28;20315;-59
2021/01/03 08:41:20;;;;;;;15.00;12.00;;;6.00;99.90;;;;;;5071641;28;20215;-57
2021/01/03 08:43:47;;;;;;;20.33;14.87;;;6.00;99.90;;;;;;5071302;28;20251;-59
2021/01/03 08:46:26;;;;;;;17.17;13.33;;;6.00;99.90;;;;;;5071649;28;20208;-63
2021/01/03 08:48:59;;;;;;;15.50;12.70;;;6.00;99.90;;;;;;5070924;28;20228;-60
2021/01/03 08:51:25;;;;;;;15.57;12.40;;;6.10;99.90;;;;;;5071572;28;20200;-60
2021/01/03 08:53:58;;;;;;;15.20;12.67;;;6.30;99.90;;;;;;5070696;28;20576;-61
2021/01/03 08:56:30;;;;;;;14.20;11.37;;;6.30;99.90;;;;;;5071434;28;20220;-61
2021/01/03 08:58:57;;;;;;;14.17;11.80;;;6.30;99.90;;;;;;5071206;28;20240;-60
2021/01/03 09:01:27;;;;;;;14.63;11.87;;;6.30;99.90;;;;;;5070983;28;20423;-60
2021/01/03 09:03:58;;;;;;;17.23;13.97;;;6.40;99.90;;;;;;5070513;28;20225;-60
2021/01/03 09:06:26;;;;;;;16.00;12.53;;;6.40;99.90;;;;;;5070333;28;20254;-60
2021/01/03 09:08:53;;;;;;;15.20;12.67;;;6.50;99.90;;;;;;5070559;28;20225;-61
2021/01/03 09:11:25;;;;;;;14.30;11.53;;;6.50;99.90;;;;;;5070787;28;20676;-60
2021/01/03 09:13:54;;;;;;;15.93;12.63;;;6.60;99.90;;;;;;5070821;28;20209;-60
2021/01/03 09:16:26;;;;;;;13.33;11.13;;;6.60;99.90;;;;;;5071121;28;20212;-60
2021/01/03 09:19:01;;;;;;;14.20;11.60;;;6.60;99.90;;;;;;5104117;22;20734;-63
2021/01/03 09:21:28;;;;;;;14.60;11.93;;;6.60;99.90;;;;;;5091495;28;20200;-64
2021/01/03 09:24:01;;;;;;;16.40;13.00;;;6.60;99.90;;;;;;5090710;28;20635;-63
2021/01/03 09:26:39;;;;;;;13.90;11.43;;;6.60;99.90;;;;;;5090946;28;20204;-64
2021/01/03 09:29:08;;;;;;;18.03;14.00;;;6.60;99.90;;;;;;5091106;28;20224;-64
2021/01/03 09:31:35;;;;;;;13.67;11.37;;;6.60;99.90;;;;;;5090988;28;20671;-64
2021/01/03 09:34:11;;;;;;;14.60;11.73;;;6.60;99.90;;;;;;5090525;28;20675;-63
2021/01/03 09:36:47;;;;;;;14.00;11.63;;;6.60;99.90;;;;;;5090932;28;20793;-63
2021/01/03 09:39:32;;;;;;;17.07;12.67;;;6.60;99.90;;;;;;5090714;28;20234;-64
2021/01/03 09:42:35;;;;;;;15.20;12.10;;;6.70;99.90;;;;;;5091324;28;20588;-65
2021/01/03 09:45:18;;;;;;;13.53;11.57;;;6.70;99.90;;;;;;5090599;28;20209;-64
2021/01/03 09:47:46;;;;;;;14.47;10.97;;;6.70;99.90;;;;;;5090740;28;20213;-64
2021/01/03 09:50:16;;;;;;;14.73;12.20;;;6.80;99.90;;;;;;5090801;28;20204;-65
2021/01/03 09:52:47;;;;;;;15.00;11.93;;;6.80;99.90;;;;;;5091351;28;20204;-64
2021/01/03 09:55:19;;;;;;;14.03;11.57;;;6.80;99.90;;;;;;5091369;28;20208;-61
2021/01/03 09:57:55;;;;;;;15.23;12.17;;;6.80;99.90;;;;;;5090771;28;20208;-63
2021/01/03 10:00:24;;;;;;;14.00;11.60;;;6.90;99.90;;;;;;5091093;28;20207;-62
2021/01/03 10:02:52;;;;;;;13.17;11.37;;;7.00;99.90;;;;;;5091027;28;20228;-63
2021/01/03 10:05:24;;;;;;;14.00;11.47;;;7.20;99.90;;;;;;5090895;28;20208;-63
2021/01/03 10:08:00;;;;;;;14.47;11.43;;;7.40;99.90;;;;;;5090530;28;20200;-64
2021/01/03 10:10:41;;;;;;;15.73;12.30;;;7.50;99.90;;;;;;5090570;28;20204;-62
2021/01/03 10:13:09;;;;;;;13.33;10.93;;;7.60;99.90;;;;;;5090628;28;20738;-65
2021/01/03 10:15:36;;;;;;;14.00;11.70;;;7.80;99.90;;;;;;5090290;28;20212;-61
2021/01/03 10:18:06;;;;;;;14.20;11.87;;;7.80;99.90;;;;;;5093040;28;20240;-64
2021/01/03 10:20:45;;;;;;;15.30;12.33;;;7.90;99.90;;;;;;5094161;28;20204;-61
2021/01/03 10:23:15;;;;;;;15.17;12.20;;;7.90;99.90;;;;;;5094447;28;20228;-68
2021/01/03 10:25:44;;;;;;;14.43;11.53;;;8.00;99.90;;;;;;5094530;28;20208;-65
2021/01/03 10:28:14;;;;;;;14.07;11.97;;;8.00;99.90;;;;;;5093938;28;20689;-61
2021/01/03 10:30:42;;;;;;;15.23;12.40;;;8.00;99.90;;;;;;5094197;28;20208;-61
2021/01/03 10:33:09;;;;;;;15.43;12.60;;;8.00;99.90;;;;;;5094181;28;20211;-63
2021/01/03 10:35:36;;;;;;;14.87;12.33;;;8.00;99.90;;;;;;5094096;28;20207;-62
2021/01/03 10:38:03;;;;;;;16.33;12.53;;;7.90;99.90;;;;;;5094005;28;20224;-63
2021/01/03 10:40:30;;;;;;;14.00;12.27;;;8.00;99.90;;;;;;5094224;28;20204;-68
2021/01/03 10:42:56;;;;;;;14.57;11.70;;;7.90;99.90;;;;;;5093988;28;20230;-67
2021/01/03 10:45:24;;;;;;;15.80;13.07;;;7.80;99.90;;;;;;5093537;28;20204;-63
2021/01/03 10:47:50;;;;;;;15.40;11.93;;;7.60;99.90;;;;;;5093223;28;20208;-63
2021/01/03 10:50:19;;;;;;;16.03;12.80;;;7.50;99.90;;;;;;5094201;28;20216;-62
2021/01/03 10:52:46;;;;;;;14.10;11.70;;;7.40;99.90;;;;;;5093853;28;20208;-63
2021/01/03 10:55:14;;;;;;;16.27;12.40;;;7.40;99.90;;;;;;5093740;28;20204;-65
2021/01/03 10:57:41;;;;;;;15.57;12.90;;;7.40;99.90;;;;;;5093747;28;20612;-66
2021/01/03 11:00:08;;;;;;;12.77;10.93;;;7.30;99.90;;;;;;5093430;28;20232;-63
2021/01/03 11:02:35;;;;;;;15.00;11.70;;;7.30;99.90;;;;;;5093184;28;20729;-62
2021/01/03 11:05:02;;;;;;;13.03;11.30;;;7.30;99.90;;;;;;5093371;28;20628;-63
2021/01/03 11:07:28;;;;;;;14.97;11.47;;;7.20;99.90;;;;;;5093585;28;20249;-66
2021/01/03 11:09:54;;;;;;;13.73;11.43;;;7.20;99.90;;;;;;5093357;28;20257;-65
2021/01/03 11:12:21;;;;;;;14.07;11.73;;;7.10;99.90;;;;;;5093575;28;20204;-64
2021/01/03 11:14:47;;;;;;;13.33;11.80;;;7.00;99.90;;;;;;5093192;28;20227;-63
2021/01/03 11:17:16;;;;;;;14.30;11.73;;;7.00;99.90;;;;;;5093059;28;20208;-65
2021/01/03 11:19:44;;;;;;;14.03;11.17;;;7.00;99.90;;;;;;5092602;28;20258;-63
2021/01/03 11:22:12;;;;;;;14.67;11.23;;;7.00;99.90;;;;;;5092987;28;20238;-63
2021/01/03 11:24:40;;;;;;;14.07;11.27;;;7.10;99.90;;;;;;5092574;28;20220;-66
2021/01/03 11:27:08;;;;;;;12.73;10.50;;;7.10;99.90;;;;;;5092740;28;20711;-62
2021/01/03 11:29:35;;;;;;;14.17;11.50;;;6.90;99.90;;;;;;5091516;28;20265;-65
2021/01/03 11:32:02;;;;;;;12.60;10.40;;;6.80;99.90;;;;;;5093181;28;20581;-63
2021/01/03 11:34:30;;;;;;;14.20;11.00;;;6.80;99.90;;;;;;5092775;28;20204;-62
2021/01/03 11:37:00;;;;;;;14.57;10.53;;;6.80;99.90;;;;;;5092576;28;20241;-63
2021/01/03 11:39:28;;;;;;;13.20;10.30;;;6.90;99.90;;;;;;5092897;28;20224;-64
2021/01/03 11:41:56;;;;;;;13.93;11.13;;;6.90;99.90;;;;;;5092623;28;20269;-63
2021/01/03 11:44:23;;;;;;;13.93;11.30;;;6.90;99.90;;;;;;5092129;28;20643;-66
2021/01/03 11:46:50;;;;;;;12.93;10.60;;;7.00;99.90;;;;;;5092532;28;20283;-64
2021/01/03 11:49:16;;;;;;;13.57;10.83;;;7.10;99.90;;;;;;5092193;28;20285;-62
2021/01/03 11:51:48;;;;;;;14.23;11.33;;;7.00;99.90;;;;;;5092503;28;20211;-66
2021/01/03 11:54:16;;;;;;;14.67;10.80;;;7.00;99.90;;;;;;5092233;28;20211;-66
2021/01/03 11:56:42;;;;;;;14.30;11.47;;;7.00;99.90;;;;;;5092567;28;20204;-62
2021/01/03 11:59:08;;;;;;;13.03;10.87;;;7.10;99.90;;;;;;5092387;28;20224;-62
2021/01/03 12:01:34;;;;;;;45.57;30.87;;;7.00;99.90;;;;;;5092583;28;20237;-61
2021/01/03 12:04:02;;;;;;;14.37;11.53;;;7.00;99.90;;;;;;5092817;28;20235;-62
2021/01/03 12:06:28;;;;;;;12.37;10.93;;;7.10;99.90;;;;;;5092769;28;20585;-62
2021/01/03 12:08:54;;;;;;;13.10;10.63;;;7.10;99.90;;;;;;5092660;28;20361;-64
2021/01/03 12:11:23;;;;;;;15.27;12.03;;;7.10;99.90;;;;;;5092811;28;20219;-63
2021/01/03 12:13:51;;;;;;;14.23;11.33;;;7.00;99.90;;;;;;5092242;28;20196;-66
2021/01/03 12:16:19;;;;;;;14.23;11.37;;;6.90;99.90;;;;;;5092376;28;20589;-62
2021/01/03 12:18:46;;;;;;;14.07;11.70;;;6.80;99.90;;;;;;5091655;28;20602;-65
2021/01/03 12:21:12;;;;;;;14.50;11.27;;;6.80;99.90;;;;;;5091716;28;20208;-65
2021/01/03 12:23:38;;;;;;;13.10;11.27;;;6.80;99.90;;;;;;5091861;28;20675;-62
2021/01/03 12:26:04;;;;;;;15.70;11.93;;;6.90;99.90;;;;;;5092043;28;20634;-63
2021/01/03 12:28:31;;;;;;;14.37;11.10;;;6.90;99.90;;;;;;5091535;28;20263;-63
2021/01/03 12:30:57;;;;;;;14.00;11.50;;;6.90;99.90;;;;;;5091567;28;20618;-63
2021/01/03 12:33:23;;;;;;;15.10;11.97;;;6.90;99.90;;;;;;5091166;28;20201;-62
2021/01/03 12:35:50;;;;;;;14.67;12.23;;;6.90;99.90;;;;;;5091864;28;20591;-66
2021/01/03 12:38:16;;;;;;;14.13;11.80;;;7.00;99.90;;;;;;5091861;28;20243;-63
2021/01/03 12:40:44;;;;;;;14.17;11.77;;;7.10;99.90;;;;;;5092059;28;20380;-63
2021/01/03 12:43:10;;;;;;;15.37;12.07;;;7.10;99.90;;;;;;5091773;28;20231;-66
2021/01/03 12:45:37;;;;;;;13.73;11.63;;;7.10;99.90;;;;;;5091496;28;20300;-65
2021/01/03 12:48:04;;;;;;;15.70;11.80;;;7.20;99.90;;;;;;5091430;28;20319;-66
2021/01/03 12:50:30;;;;;;;14.67;11.80;;;7.20;99.90;;;;;;5091515;28;20236;-63
2021/01/03 12:52:57;;;;;;;13.47;10.03;;;7.30;99.90;;;;;;5091390;28;20234;-63
2021/01/03 12:55:23;;;;;;;12.53;10.47;;;7.30;99.90;;;;;;5091363;28;20264;-63
2021/01/03 12:57:49;;;;;;;13.80;11.47;;;7.30;99.90;;;;;;5091617;28;20261;-63
2021/01/03 13:00:16;;;;;;;14.13;11.20;;;7.20;99.90;;;;;;5091826;28;20196;-63